Time;durP1;ratioP1;P1;durP2;ratioP2;P2;SDS_P1;SDS_P2;PMS_P1;PMS_P2;Temp;Humidity;BMP_temperature;BMP_pressure;BME280_temperature;BME280_humidity;BME280_pressure;Samples;Min_cycle;Max_cycle;Signal;HPM_P1;HPM_P2
2021/04/12 00:01:44;;;;;;;1.80;0.30;;;5.70;99.90;;;;;;5102859;28;20207;-62
2021/04/12 00:04:34;;;;;;;1.75;0.30;;;5.70;99.90;;;;;;5098533;28;20186;-62
2021/04/12 00:07:27;;;;;;;1.90;0.73;;;5.60;99.90;;;;;;5091097;28;20422;-62
2021/04/12 00:10:02;;;;;;;1.75;0.20;;;5.70;99.90;;;;;;5095822;28;20254;-62
2021/04/12 00:12:48;;;;;;;2.28;0.85;;;5.70;99.90;;;;;;5102197;28;20254;-62
2021/04/12 00:15:22;;;;;;;2.65;0.68;;;5.80;99.90;;;;;;5099084;28;20187;-62
2021/04/12 00:17:50;;;;;;;1.70;0.20;;;5.90;99.90;;;;;;5073815;28;20185;-62
2021/04/12 00:20:38;;;;;;;1.70;0.20;;;5.80;99.90;;;;;;5100250;28;20226;-62
2021/04/12 00:23:08;;;;;;;2.80;0.73;;;5.80;99.90;;;;;;5092935;28;20192;-63
2021/04/12 00:25:43;;;;;;;1.70;0.20;;;5.80;99.90;;;;;;5106832;28;20252;-63
2021/04/12 00:28:31;;;;;;;1.70;0.20;;;5.80;99.90;;;;;;5105249;28;20225;-62
2021/04/12 00:31:21;;;;;;;2.42;0.65;;;5.80;99.90;;;;;;5102380;28;20286;-63
2021/04/12 00:33:55;;;;;;;2.17;0.88;;;5.80;99.90;;;;;;5104279;28;20176;-67
2021/04/12 00:36:24;;;;;;;4.05;2.67;;;5.70;99.90;;;;;;5100986;28;20241;-62
2021/04/12 00:39:04;;;;;;;1.88;0.38;;;5.60;99.90;;;;;;5103416;28;20215;-62
2021/04/12 00:41:52;;;;;;;1.70;0.20;;;5.60;99.90;;;;;;5105685;28;20187;-63
2021/04/12 00:44:26;;;;;;;2.30;0.60;;;5.70;99.90;;;;;;5113731;28;20189;-62
2021/04/12 00:47:13;;;;;;;3.45;1.25;;;5.70;99.90;;;;;;5094152;28;20318;-63
2021/04/12 00:50:02;;;;;;;2.08;0.70;;;5.60;99.90;;;;;;5097546;28;20260;-63
2021/04/12 00:52:56;;;;;;;2.88;1.30;;;5.70;99.90;;;;;;5101803;28;20204;-62
2021/04/12 00:55:38;;;;;;;1.70;0.20;;;5.50;99.90;;;;;;5081471;28;20191;-62
2021/04/12 00:58:27;;;;;;;4.25;1.52;;;5.50;99.90;;;;;;5086614;28;20195;-62
2021/04/12 01:01:34;;;;;;;2.63;1.67;;;5.60;99.90;;;;;;5093926;28;20192;-63
2021/04/12 01:04:00;;;;;;;1.70;0.20;;;5.70;99.90;;;;;;5052337;28;20197;-62
2021/04/12 01:06:56;;;;;;;2.63;0.70;;;5.70;99.90;;;;;;5093904;28;20187;-62
2021/04/12 01:09:59;;;;;;;1.70;0.20;;;5.70;99.90;;;;;;5091472;28;20195;-61
2021/04/12 01:12:53;;;;;;;1.80;0.40;;;5.70;99.90;;;;;;5082940;28;20215;-62
2021/04/12 01:15:37;;;;;;;1.70;0.20;;;5.70;99.90;;;;;;5083944;28;20252;-62
2021/04/12 01:18:22;;;;;;;2.72;0.95;;;5.60;99.90;;;;;;5107991;28;20733;-62
2021/04/12 01:21:29;;;;;;;3.05;1.73;;;5.50;99.90;;;;;;5100693;28;20252;-62
2021/04/12 01:24:06;;;;;;;1.70;0.20;;;5.50;99.90;;;;;;5104984;28;20191;-62
2021/04/12 01:26:54;;;;;;;3.65;1.52;;;5.60;99.90;;;;;;5094153;28;20176;-62
2021/04/12 01:29:43;;;;;;;2.67;1.10;;;5.60;99.90;;;;;;5089385;28;20323;-61
2021/04/12 01:32:24;;;;;;;1.90;0.50;;;5.60;99.90;;;;;;5094717;28;20633;-62
2021/04/12 01:35:27;;;;;;;1.73;0.20;;;5.60;99.90;;;;;;5091272;28;20184;-62
2021/04/12 01:38:13;;;;;;;1.80;0.40;;;5.60;99.90;;;;;;5090004;28;20184;-63
2021/04/12 01:41:11;;;;;;;1.80;0.20;;;5.60;99.90;;;;;;5088997;28;20182;-63
2021/04/12 01:44:12;;;;;;;3.55;1.80;;;5.70;99.90;;;;;;5087868;28;20168;-62
2021/04/12 01:46:47;;;;;;;1.92;0.55;;;5.70;99.90;;;;;;5098341;28;20266;-61
2021/04/12 01:49:33;;;;;;;2.22;0.52;;;5.60;99.90;;;;;;5087491;28;20178;-62
2021/04/12 01:52:19;;;;;;;2.70;1.95;;;5.60;99.90;;;;;;5094945;28;20208;-61
2021/04/12 01:55:03;;;;;;;2.63;0.55;;;5.60;99.90;;;;;;5089161;28;20203;-62
2021/04/12 01:57:39;;;;;;;2.80;1.80;;;5.60;99.90;;;;;;5097802;28;20171;-61
2021/04/12 02:00:35;;;;;;;1.75;0.20;;;5.70;99.90;;;;;;5092206;28;20208;-62
2021/04/12 02:03:19;;;;;;;3.75;1.35;;;5.60;99.90;;;;;;5090939;28;20222;-63
2021/04/12 02:06:12;;;;;;;1.80;0.30;;;5.50;99.90;;;;;;5090178;28;20239;-63
2021/04/12 02:08:46;;;;;;;1.73;0.20;;;5.60;99.90;;;;;;5097161;28;20213;-63
2021/04/12 02:11:33;;;;;;;2.58;1.08;;;5.70;99.90;;;;;;5090641;28;20237;-62
2021/04/12 02:14:36;;;;;;;1.73;0.20;;;5.60;99.90;;;;;;5091541;28;20180;-62
2021/04/12 02:17:02;;;;;;;3.10;1.50;;;5.60;99.90;;;;;;5095954;28;20180;-62
2021/04/12 02:19:53;;;;;;;2.83;0.77;;;5.50;99.90;;;;;;5100629;28;20205;-62
2021/04/12 02:22:45;;;;;;;4.22;1.98;;;5.50;99.90;;;;;;5089735;28;20209;-63
2021/04/12 02:25:36;;;;;;;1.80;0.30;;;5.50;99.90;;;;;;5073022;28;20650;-62
2021/04/12 02:28:12;;;;;;;3.20;1.13;;;5.70;99.90;;;;;;5094480;28;20184;-62
2021/04/12 02:30:45;;;;;;;2.45;1.05;;;5.70;99.90;;;;;;5106202;28;20187;-63
2021/04/12 02:33:46;;;;;;;1.70;0.20;;;5.60;99.90;;;;;;5113062;28;20172;-70
2021/04/12 02:36:32;;;;;;;2.10;0.70;;;5.60;99.90;;;;;;5107857;28;20260;-63
2021/04/12 02:39:11;;;;;;;2.58;0.88;;;5.70;99.90;;;;;;5103675;28;20176;-63
2021/04/12 02:42:01;;;;;;;1.70;0.20;;;5.60;99.90;;;;;;5111697;28;20216;-63
2021/04/12 02:44:42;;;;;;;1.73;0.20;;;5.60;99.90;;;;;;5098664;28;20243;-63
2021/04/12 02:47:37;;;;;;;2.30;0.50;;;5.70;99.90;;;;;;5109987;28;20175;-66
2021/04/12 02:50:32;;;;;;;1.70;0.20;;;5.60;99.90;;;;;;5094077;28;20234;-62
2021/04/12 02:53:20;;;;;;;1.75;0.20;;;5.60;99.90;;;;;;5095147;28;20230;-63
2021/04/12 02:56:04;;;;;;;1.80;0.40;;;5.60;99.90;;;;;;5092644;28;20222;-63
2021/04/12 02:58:53;;;;;;;3.33;1.70;;;5.70;99.90;;;;;;5092214;28;20190;-63
2021/04/12 03:01:46;;;;;;;3.38;1.90;;;5.60;99.90;;;;;;5089224;28;20211;-63
2021/04/12 03:04:49;;;;;;;2.90;1.52;;;5.50;99.90;;;;;;5110034;28;20240;-62
2021/04/12 03:07:38;;;;;;;2.47;1.30;;;5.60;99.90;;;;;;5115689;28;20245;-62
2021/04/12 03:10:11;;;;;;;4.32;1.35;;;5.50;99.90;;;;;;5087397;28;20220;-62
2021/04/12 03:12:58;;;;;;;4.40;2.78;;;5.50;99.90;;;;;;5093236;28;20204;-62
2021/04/12 03:15:52;;;;;;;2.50;0.77;;;5.40;99.90;;;;;;5089657;28;20185;-63
2021/04/12 03:18:42;;;;;;;4.13;2.40;;;5.50;99.90;;;;;;5102134;28;20183;-62
2021/04/12 03:21:14;;;;;;;2.30;0.50;;;5.40;99.90;;;;;;5099529;28;20218;-62
2021/04/12 03:23:48;;;;;;;1.70;0.20;;;5.40;99.90;;;;;;5090518;28;20267;-63
2021/04/12 03:26:32;;;;;;;2.13;1.15;;;5.50;99.90;;;;;;5097349;28;20191;-62
2021/04/12 03:28:57;;;;;;;4.55;2.30;;;5.50;99.90;;;;;;5101480;28;20180;-63
2021/04/12 03:31:48;;;;;;;3.53;1.40;;;5.40;99.90;;;;;;5089290;28;20211;-62
2021/04/12 03:34:23;;;;;;;1.80;0.50;;;5.50;99.90;;;;;;5092836;28;20183;-62
2021/04/12 03:37:25;;;;;;;1.70;0.20;;;5.50;99.90;;;;;;5094759;28;20187;-62
2021/04/12 03:40:16;;;;;;;1.90;0.60;;;5.50;99.90;;;;;;5095797;28;20676;-62
2021/04/12 03:43:00;;;;;;;2.80;0.60;;;5.50;99.90;;;;;;5092488;28;20231;-62
2021/04/12 03:45:34;;;;;;;1.70;0.20;;;5.50;99.90;;;;;;5087902;28;20454;-62
2021/04/12 03:48:33;;;;;;;1.70;0.30;;;5.50;99.90;;;;;;5098010;28;20185;-63
2021/04/12 03:51:16;;;;;;;2.10;0.68;;;5.60;99.90;;;;;;5094814;28;20242;-62
2021/04/12 03:53:51;;;;;;;1.75;0.20;;;5.60;99.90;;;;;;5103777;28;20604;-62
2021/04/12 03:56:22;;;;;;;1.73;0.20;;;5.50;99.90;;;;;;5092155;28;20175;-62
2021/04/12 03:58:51;;;;;;;1.80;0.30;;;5.60;99.90;;;;;;5092074;28;20211;-62
2021/04/12 04:01:42;;;;;;;1.80;0.40;;;5.60;99.90;;;;;;5099845;28;20607;-62
2021/04/12 04:04:22;;;;;;;2.55;0.85;;;5.40;99.90;;;;;;5097468;28;20184;-62
2021/04/12 04:07:15;;;;;;;2.30;1.40;;;5.40;99.90;;;;;;5090928;28;20176;-62
2021/04/12 04:09:55;;;;;;;3.45;2.08;;;5.50;99.90;;;;;;5091086;28;20176;-62
2021/04/12 04:12:44;;;;;;;7.15;3.53;;;5.50;99.90;;;;;;5107150;28;20221;-63
2021/04/12 04:15:44;;;;;;;5.55;3.53;;;5.40;99.90;;;;;;5118168;28;20188;-63
2021/04/12 04:18:28;;;;;;;5.30;3.60;;;5.30;99.90;;;;;;5100464;28;20180;-63
2021/04/12 04:21:09;;;;;;;3.83;2.03;;;5.30;99.90;;;;;;5118917;28;20176;-63
2021/04/12 04:23:53;;;;;;;1.73;0.20;;;5.20;99.90;;;;;;5109291;28;20225;-62
2021/04/12 04:26:40;;;;;;;6.57;1.77;;;5.30;99.90;;;;;;5111225;28;20183;-62
2021/04/12 04:29:28;;;;;;;2.00;0.55;;;5.30;99.90;;;;;;5091510;28;20176;-63
2021/04/12 04:32:05;;;;;;;2.00;0.50;;;5.20;99.90;;;;;;5085420;28;20208;-62
2021/04/12 04:34:32;;;;;;;3.22;1.23;;;5.20;99.90;;;;;;5105427;28;20202;-62
2021/04/12 04:37:01;;;;;;;1.80;0.30;;;5.20;99.90;;;;;;5089527;28;20190;-62
2021/04/12 04:39:55;;;;;;;1.75;0.20;;;5.20;99.90;;;;;;5090237;28;20185;-62
2021/04/12 04:42:42;;;;;;;4.47;2.10;;;5.30;99.90;;;;;;5083850;28;20253;-62
2021/04/12 04:45:15;;;;;;;2.10;0.77;;;5.20;99.90;;;;;;5104637;28;20187;-62
2021/04/12 04:47:55;;;;;;;5.20;1.77;;;5.20;99.90;;;;;;5096197;28;20183;-62
2021/04/12 04:50:30;;;;;;;3.75;1.05;;;5.20;99.90;;;;;;5085914;28;20215;-63
2021/04/12 04:53:25;;;;;;;1.70;0.20;;;5.20;99.90;;;;;;5093211;28;20674;-62
2021/04/12 04:56:04;;;;;;;2.30;0.77;;;5.10;99.90;;;;;;5100722;28;20168;-62
2021/04/12 04:58:33;;;;;;;6.38;2.25;;;5.20;99.90;;;;;;5091032;28;20198;-62
2021/04/12 05:01:22;;;;;;;2.00;0.82;;;5.20;99.90;;;;;;5092316;28;20180;-62
2021/04/12 05:03:59;;;;;;;5.30;2.72;;;5.10;99.90;;;;;;5096579;28;20196;-62
2021/04/12 05:06:49;;;;;;;1.70;0.20;;;5.10;99.90;;;;;;5094746;28;20198;-62
2021/04/12 05:09:33;;;;;;;2.33;1.15;;;5.10;99.90;;;;;;5090437;28;20183;-61
2021/04/12 05:12:04;;;;;;;1.90;0.55;;;5.10;99.90;;;;;;5086115;28;20253;-61
2021/04/12 05:14:50;;;;;;;2.38;1.05;;;5.10;99.90;;;;;;5091548;28;20594;-62
2021/04/12 05:17:43;;;;;;;8.43;4.38;;;5.10;99.90;;;;;;5098790;28;20259;-65
2021/04/12 05:20:50;;;;;;;2.38;1.00;;;5.10;99.90;;;;;;5098282;28;20202;-62
2021/04/12 05:23:26;;;;;;;1.75;0.30;;;5.00;99.90;;;;;;5102126;28;20175;-63
2021/04/12 05:26:06;;;;;;;1.73;0.20;;;5.00;99.90;;;;;;5097908;28;20302;-63
2021/04/12 05:29:15;;;;;;;2.90;1.95;;;5.10;99.90;;;;;;5096863;28;20177;-62
2021/04/12 05:32:11;;;;;;;3.20;2.42;;;5.10;99.90;;;;;;5103875;28;20218;-62
2021/04/12 05:34:45;;;;;;;8.73;2.55;;;5.00;99.90;;;;;;5092045;28;20548;-62
2021/04/12 05:37:59;;;;;;;2.67;1.40;;;5.00;99.90;;;;;;5088999;28;20180;-62
2021/04/12 05:40:43;;;;;;;1.75;0.20;;;5.10;99.90;;;;;;4988773;28;20646;-63
2021/04/12 05:43:33;;;;;;;13.52;5.47;;;5.10;99.90;;;;;;5005946;28;20202;-62
2021/04/12 05:46:17;;;;;;;1.75;0.20;;;5.00;99.90;;;;;;5064049;28;20194;-63
2021/04/12 05:49:00;;;;;;;1.90;0.77;;;5.10;99.90;;;;;;5092813;28;20212;-62
2021/04/12 05:52:11;;;;;;;1.73;0.20;;;5.20;99.90;;;;;;5081452;28;20235;-62
2021/04/12 05:55:14;;;;;;;2.42;1.35;;;5.20;99.90;;;;;;5080926;28;20655;-62
2021/04/12 05:58:12;;;;;;;1.70;0.20;;;5.20;99.90;;;;;;5091702;28;20176;-62
2021/04/12 06:01:34;;;;;;;1.80;0.50;;;5.10;99.90;;;;;;5087650;28;20172;-62
2021/04/12 06:04:17;;;;;;;5.00;2.75;;;5.20;99.90;;;;;;4991684;28;20202;-61
2021/04/12 06:07:13;;;;;;;2.50;1.00;;;5.20;99.90;;;;;;4989306;28;20184;-63
2021/04/12 06:10:05;;;;;;;2.05;0.88;;;5.10;99.90;;;;;;5096498;28;20196;-63
2021/04/12 06:12:56;;;;;;;1.75;0.20;;;5.20;99.90;;;;;;5110519;28;20221;-62
2021/04/12 06:15:37;;;;;;;13.52;5.63;;;5.20;99.90;;;;;;5108384;28;20184;-66
2021/04/12 06:18:14;;;;;;;2.92;1.90;;;5.10;99.90;;;;;;5103593;28;20259;-62
2021/04/12 06:21:04;;;;;;;1.70;0.20;;;5.10;99.90;;;;;;5108063;28;20198;-62
2021/04/12 06:23:35;;;;;;;4.28;2.10;;;5.20;99.90;;;;;;5099722;28;20190;-62
2021/04/12 06:26:19;;;;;;;4.28;1.58;;;5.20;99.90;;;;;;5095982;28;20168;-63
2021/04/12 06:28:57;;;;;;;1.77;0.32;;;5.30;99.90;;;;;;5094749;28;20179;-59
2021/04/12 06:32:10;;;;;;;2.22;0.90;;;5.30;99.90;;;;;;5086193;28;20218;-61
2021/04/12 06:34:51;;;;;;;1.70;0.20;;;5.20;99.90;;;;;;5097929;28;20175;-60
2021/04/12 06:37:38;;;;;;;2.33;0.77;;;5.30;99.90;;;;;;5108438;28;20171;-61
2021/04/12 06:40:25;;;;;;;3.08;1.40;;;5.30;99.90;;;;;;5112413;28;20165;-60
2021/04/12 06:43:34;;;;;;;3.10;0.93;;;5.20;99.90;;;;;;5108271;28;20287;-60
2021/04/12 06:46:38;;;;;;;2.78;1.50;;;5.30;99.90;;;;;;5096743;28;20180;-63
2021/04/12 06:49:26;;;;;;;3.20;0.77;;;5.20;99.90;;;;;;5102027;28;20661;-60
2021/04/12 06:52:17;;;;;;;2.00;0.52;;;5.30;99.90;;;;;;5108300;28;20726;-60
2021/04/12 06:54:51;;;;;;;3.17;1.27;;;5.20;99.90;;;;;;5114371;28;20199;-62
2021/04/12 06:57:29;;;;;;;2.88;1.42;;;5.20;99.90;;;;;;5105545;28;20172;-61
2021/04/12 07:00:00;;;;;;;3.33;2.13;;;5.20;99.90;;;;;;5117571;28;20176;-60
2021/04/12 07:02:44;;;;;;;2.53;0.77;;;5.20;99.90;;;;;;5106566;28;20237;-60
2021/04/12 07:05:43;;;;;;;1.90;0.68;;;5.30;99.90;;;;;;5103441;28;20183;-63
2021/04/12 07:08:50;;;;;;;2.17;0.63;;;5.30;99.90;;;;;;5092313;28;20185;-65
2021/04/12 07:11:48;;;;;;;5.03;1.95;;;5.30;99.90;;;;;;5108827;28;20230;-60
2021/04/12 07:15:03;;;;;;;1.92;0.60;;;5.30;99.90;;;;;;5099869;28;20198;-60
2021/04/12 07:17:54;;;;;;;1.80;0.40;;;5.30;99.90;;;;;;5114399;28;20168;-60
2021/04/12 07:20:53;;;;;;;2.33;0.45;;;5.30;99.90;;;;;;5117415;28;20195;-64
2021/04/12 07:23:56;;;;;;;2.65;1.42;;;5.40;99.90;;;;;;5107397;28;20212;-60
2021/04/12 07:26:54;;;;;;;1.73;0.20;;;5.40;99.90;;;;;;5104861;28;20175;-61
2021/04/12 07:29:22;;;;;;;2.00;0.60;;;5.50;99.90;;;;;;5098414;28;20196;-60
2021/04/12 07:31:58;;;;;;;2.00;0.65;;;5.50;99.90;;;;;;5105925;28;20210;-65
2021/04/12 07:34:55;;;;;;;3.67;1.25;;;5.50;99.90;;;;;;5092394;28;20188;-61
2021/04/12 07:37:49;;;;;;;2.70;1.05;;;5.60;99.90;;;;;;5097771;28;20249;-62
2021/04/12 07:40:24;;;;;;;1.92;0.50;;;5.70;99.90;;;;;;5128706;28;20163;-61
2021/04/12 07:43:42;;;;;;;1.77;0.30;;;5.80;99.90;;;;;;5124248;28;20219;-60
2021/04/12 07:46:23;;;;;;;1.70;0.20;;;5.80;99.90;;;;;;5078479;28;20189;-61
2021/04/12 07:49:27;;;;;;;1.80;0.40;;;5.80;99.90;;;;;;5116488;28;20187;-61
2021/04/12 07:52:28;;;;;;;1.70;0.20;;;5.80;99.90;;;;;;5109199;28;20234;-62
2021/04/12 07:55:27;;;;;;;3.45;1.17;;;5.90;99.90;;;;;;5010973;28;20182;-65
2021/04/12 07:57:55;;;;;;;2.47;0.73;;;5.90;99.90;;;;;;5100473;28;20196;-64
2021/04/12 08:00:58;;;;;;;1.80;0.35;;;5.80;99.90;;;;;;5101567;28;20187;-65
2021/04/12 08:03:42;;;;;;;2.55;0.88;;;5.90;99.90;;;;;;5091523;28;20186;-66
2021/04/12 08:06:57;;;;;;;1.73;0.35;;;5.90;99.90;;;;;;5094644;28;20189;-67
2021/04/12 08:09:44;;;;;;;2.50;0.85;;;5.90;99.90;;;;;;5094267;28;20192;-67
2021/04/12 08:12:37;;;;;;;1.90;0.43;;;5.90;99.90;;;;;;5099207;28;20210;-67
2021/04/12 08:15:28;;;;;;;1.80;0.57;;;5.90;99.90;;;;;;5107401;22;20215;-64
2021/04/12 08:18:28;;;;;;;1.70;0.20;;;5.90;99.90;;;;;;5090302;28;20531;-64
2021/04/12 08:21:24;;;;;;;3.50;1.35;;;6.00;99.90;;;;;;5087186;28;20247;-64
2021/04/12 08:24:11;;;;;;;3.63;0.95;;;6.10;99.90;;;;;;5092183;28;20646;-64
2021/04/12 08:27:21;;;;;;;1.70;0.20;;;6.10;99.90;;;;;;5075098;28;20203;-64
2021/04/12 08:30:08;;;;;;;1.70;0.20;;;6.30;99.90;;;;;;5084552;28;20646;-64
2021/04/12 08:33:12;;;;;;;1.70;0.20;;;6.40;99.90;;;;;;5085811;28;20218;-64
2021/04/12 08:35:59;;;;;;;1.70;0.20;;;6.50;99.90;;;;;;5085790;28;20654;-64
2021/04/12 08:38:57;;;;;;;1.80;0.30;;;6.60;99.90;;;;;;5084681;28;20280;-64
2021/04/12 08:41:51;;;;;;;1.67;0.20;;;6.60;99.90;;;;;;5089810;28;20180;-68
2021/04/12 08:44:41;;;;;;;1.70;0.20;;;6.70;99.90;;;;;;5090103;28;20180;-68
2021/04/12 08:47:25;;;;;;;1.70;0.20;;;6.80;99.90;;;;;;5089037;28;20184;-68
2021/04/12 08:50:05;;;;;;;3.85;1.65;;;6.80;99.90;;;;;;5088942;28;20445;-67
2021/04/12 08:53:08;;;;;;;1.77;0.40;;;6.80;99.90;;;;;;5088337;28;20829;-66
2021/04/12 08:56:08;;;;;;;12.73;2.05;;;6.60;99.90;;;;;;5086783;28;20199;-66
2021/04/12 08:59:18;;;;;;;1.75;0.20;;;6.50;99.90;;;;;;5091265;28;20294;-67
2021/04/12 09:01:59;;;;;;;1.70;0.20;;;6.60;99.90;;;;;;5085857;28;20607;-67
2021/04/12 09:04:31;;;;;;;2.55;1.58;;;6.60;99.90;;;;;;5085532;28;20234;-68
2021/04/12 09:07:15;;;;;;;1.70;0.30;;;6.70;99.90;;;;;;5092293;28;20187;-70
2021/04/12 09:10:19;;;;;;;3.55;1.80;;;6.70;99.90;;;;;;5090950;28;20186;-67
2021/04/12 09:13:22;;;;;;;1.95;0.82;;;6.80;99.90;;;;;;5091338;28;20249;-66
2021/04/12 09:15:58;;;;;;;2.03;0.75;;;6.70;99.90;;;;;;5086982;28;20211;-67
2021/04/12 09:18:38;;;;;;;2.30;0.90;;;6.60;99.90;;;;;;5083540;28;20183;-67
2021/04/12 09:21:06;;;;;;;1.70;0.20;;;6.70;99.90;;;;;;5090523;28;20313;-67
2021/04/12 09:23:44;;;;;;;2.55;0.52;;;6.70;99.90;;;;;;5090080;28;20187;-67
2021/04/12 09:26:30;;;;;;;1.90;0.40;;;6.70;99.90;;;;;;5090376;28;20207;-67
2021/04/12 09:29:17;;;;;;;4.30;1.02;;;6.70;99.90;;;;;;5104719;28;20187;-67
2021/04/12 09:32:23;;;;;;;2.00;0.57;;;6.70;99.90;;;;;;5098025;28;20625;-66
2021/04/12 09:35:23;;;;;;;1.80;0.43;;;6.90;99.90;;;;;;5088944;28;20453;-66
2021/04/12 09:38:24;;;;;;;2.70;1.27;;;6.90;99.90;;;;;;5091226;28;20184;-67
2021/04/12 09:41:18;;;;;;;1.70;0.20;;;6.70;99.90;;;;;;5089876;28;20433;-66
2021/04/12 09:44:22;;;;;;;1.80;0.40;;;6.60;99.90;;;;;;5091230;28;20184;-66
2021/04/12 09:47:38;;;;;;;1.88;0.65;;;6.60;99.90;;;;;;5092596;28;20258;-66
2021/04/12 09:50:35;;;;;;;4.57;1.37;;;6.70;99.90;;;;;;5089519;28;20180;-67
2021/04/12 09:53:29;;;;;;;1.70;0.20;;;6.80;99.90;;;;;;5088543;28;20476;-66
2021/04/12 09:56:38;;;;;;;1.70;0.20;;;6.90;99.90;;;;;;5085847;28;20481;-67
2021/04/12 09:59:36;;;;;;;3.40;1.90;;;7.00;99.90;;;;;;5086008;28;20777;-67
2021/04/12 10:02:39;;;;;;;1.80;0.60;;;7.00;99.60;;;;;;5090008;28;20916;-67
2021/04/12 10:05:15;;;;;;;1.67;0.30;;;6.90;99.90;;;;;;5089362;28;20214;-67
2021/04/12 10:07:47;;;;;;;1.80;0.50;;;7.00;99.20;;;;;;5095810;28;20533;-66
2021/04/12 10:10:58;;;;;;;2.37;0.80;;;7.00;98.70;;;;;;5091407;28;20860;-67
2021/04/12 10:13:46;;;;;;;1.60;0.20;;;7.10;98.80;;;;;;5084690;28;20442;-67
2021/04/12 10:16:34;;;;;;;2.73;1.03;;;7.10;98.60;;;;;;5089417;28;20522;-67
2021/04/12 10:19:21;;;;;;;2.10;1.17;;;7.10;97.40;;;;;;5088360;28;20426;-67
2021/04/12 10:21:51;;;;;;;4.53;1.57;;;7.10;97.20;;;;;;5088695;28;20975;-67
2021/04/12 10:24:34;;;;;;;1.70;0.40;;;7.10;97.30;;;;;;5087113;28;20430;-66
2021/04/12 10:27:08;;;;;;;3.10;0.93;;;7.20;96.30;;;;;;5087061;28;20512;-68
2021/04/12 10:30:06;;;;;;;2.90;1.53;;;7.40;95.90;;;;;;5086893;28;20438;-68
2021/04/12 10:32:35;;;;;;;1.60;0.20;;;7.40;92.60;;;;;;5087837;28;20461;-68
2021/04/12 10:35:08;;;;;;;1.60;0.20;;;7.50;90.40;;;;;;5088901;28;20783;-68
2021/04/12 10:37:59;;;;;;;1.60;0.20;;;7.70;90.20;;;;;;5089178;28;20480;-68
2021/04/12 10:40:31;;;;;;;1.67;0.30;;;7.80;89.10;;;;;;5091841;28;20437;-67
2021/04/12 10:43:02;;;;;;;3.07;0.63;;;8.00;90.00;;;;;;5089024;28;20442;-67
2021/04/12 10:45:37;;;;;;;2.00;0.60;;;8.20;87.60;;;;;;5088649;28;21058;-67
2021/04/12 10:48:25;;;;;;;8.33;1.40;;;8.20;87.10;;;;;;5085653;28;20474;-67
2021/04/12 10:51:18;;;;;;;5.23;2.03;;;7.80;89.60;;;;;;5088261;28;20442;-67
2021/04/12 10:53:46;;;;;;;2.77;1.63;;;7.60;90.60;;;;;;5091204;28;20469;-68
2021/04/12 10:56:27;;;;;;;1.97;0.67;;;7.60;90.90;;;;;;5098412;28;20449;-67
2021/04/12 10:59:19;;;;;;;2.20;1.20;;;7.60;90.20;;;;;;5099380;28;20526;-67
2021/04/12 11:02:14;;;;;;;1.60;0.20;;;7.60;90.30;;;;;;5086881;28;20445;-66
2021/04/12 11:05:11;;;;;;;1.60;0.20;;;7.60;87.30;;;;;;5083412;28;20793;-66
2021/04/12 11:08:09;;;;;;;2.73;1.17;;;7.70;87.10;;;;;;5079854;28;20468;-67
2021/04/12 11:10:41;;;;;;;1.90;0.53;;;7.90;85.50;;;;;;5082332;28;20446;-65
2021/04/12 11:13:34;;;;;;;1.60;0.20;;;8.20;84.40;;;;;;5091128;28;20820;-65
2021/04/12 11:16:21;;;;;;;3.77;1.13;;;8.40;83.60;;;;;;5073386;28;20519;-66
2021/04/12 11:19:01;;;;;;;8.43;1.53;;;8.70;85.10;;;;;;5089781;28;20450;-66
2021/04/12 11:21:33;;;;;;;2.17;0.70;;;8.70;78.70;;;;;;5092412;28;20437;-66
2021/04/12 11:24:09;;;;;;;1.90;0.60;;;8.50;74.70;;;;;;5086513;28;20461;-65
2021/04/12 11:26:35;;;;;;;1.80;0.40;;;8.40;73.80;;;;;;5086058;28;20511;-65
2021/04/12 11:29:24;;;;;;;1.83;0.53;;;8.50;74.60;;;;;;5073455;28;20469;-66
2021/04/12 11:32:16;;;;;;;1.60;0.20;;;8.70;73.20;;;;;;5090228;28;20215;-66
2021/04/12 11:34:54;;;;;;;1.70;0.37;;;8.80;71.60;;;;;;5090235;28;20808;-66
2021/04/12 11:37:47;;;;;;;1.50;0.20;;;8.80;72.50;;;;;;5086307;28;21120;-66
2021/04/12 11:40:33;;;;;;;1.60;0.30;;;8.60;72.60;;;;;;5090664;28;20441;-66
2021/04/12 11:43:03;;;;;;;1.60;0.20;;;8.50;73.20;;;;;;5093081;28;20490;-66
2021/04/12 11:45:40;;;;;;;1.87;0.60;;;8.40;74.50;;;;;;5092649;28;20445;-66
2021/04/12 11:48:14;;;;;;;1.60;0.20;;;8.40;74.20;;;;;;5090421;28;20477;-63
2021/04/12 11:50:53;;;;;;;3.30;1.03;;;8.50;74.60;;;;;;5090934;28;20432;-64
2021/04/12 11:53:46;;;;;;;1.70;0.50;;;8.40;74.10;;;;;;5083044;28;20434;-62
2021/04/12 11:56:35;;;;;;;2.50;0.90;;;8.60;75.30;;;;;;5090223;28;20675;-62
2021/04/12 11:59:08;;;;;;;1.70;0.43;;;8.50;72.20;;;;;;5087113;28;20800;-61
2021/04/12 12:01:40;;;;;;;1.60;0.20;;;8.50;74.50;;;;;;5091421;28;20477;-61
2021/04/12 12:04:17;;;;;;;3.03;0.90;;;8.50;73.20;;;;;;5088762;28;20499;-62
2021/04/12 12:06:55;;;;;;;1.60;0.33;;;8.70;73.90;;;;;;5085248;28;20831;-62
2021/04/12 12:09:48;;;;;;;1.90;0.83;;;8.60;73.70;;;;;;5082525;28;20516;-61
2021/04/12 12:12:34;;;;;;;2.33;0.73;;;8.40;72.90;;;;;;5090671;28;20466;-62
2021/04/12 12:15:18;;;;;;;1.80;0.97;;;8.50;75.00;;;;;;5090046;28;20880;-62
2021/04/12 12:17:51;;;;;;;1.60;0.30;;;8.60;75.50;;;;;;5087112;28;20434;-62
2021/04/12 12:20:21;;;;;;;2.93;1.07;;;8.50;74.70;;;;;;5091059;28;20425;-62
2021/04/12 12:23:12;;;;;;;1.70;0.30;;;8.50;74.70;;;;;;5092387;28;20437;-63
2021/04/12 12:25:42;;;;;;;1.80;0.40;;;8.50;75.50;;;;;;5085442;28;20461;-61
2021/04/12 12:28:30;;;;;;;2.03;0.60;;;8.80;74.50;;;;;;5087509;28;20437;-64
2021/04/12 12:34:34;;;;;;;1.53;0.20;;;9.00;74.60;;;;;;5091268;28;20448;-64
2021/04/12 12:37:31;;;;;;;1.70;0.50;;;9.20;73.80;;;;;;5089065;28;20446;-64
2021/04/12 12:39:59;;;;;;;1.50;0.20;;;8.90;73.30;;;;;;5075434;28;20430;-64
2021/04/12 12:42:38;;;;;;;1.60;0.20;;;9.10;73.00;;;;;;5089405;28;20437;-64
2021/04/12 12:45:14;;;;;;;1.57;0.20;;;9.10;74.10;;;;;;5092869;28;20552;-64
2021/04/12 12:47:49;;;;;;;1.53;0.20;;;9.20;74.10;;;;;;5090954;28;20516;-64
2021/04/12 12:50:26;;;;;;;7.30;2.00;;;9.20;72.30;;;;;;5089925;28;20433;-63
2021/04/12 12:52:56;;;;;;;1.87;0.60;;;9.10;72.40;;;;;;5091069;28;20465;-66
2021/04/12 12:55:29;;;;;;;1.57;0.20;;;8.90;73.60;;;;;;5064909;28;20492;-64
2021/04/12 12:57:56;;;;;;;1.97;0.50;;;8.90;74.10;;;;;;5069050;28;20437;-64
2021/04/12 13:00:43;;;;;;;1.50;0.20;;;8.70;71.50;;;;;;5089084;28;20891;-64
2021/04/12 13:03:29;;;;;;;2.00;1.07;;;8.60;74.10;;;;;;5088249;28;20445;-63
2021/04/12 13:05:57;;;;;;;2.37;1.13;;;8.70;73.40;;;;;;5089493;28;20481;-63
2021/04/12 13:08:29;;;;;;;3.20;1.50;;;8.70;74.90;;;;;;5087612;28;20927;-62
2021/04/12 13:10:56;;;;;;;1.80;0.40;;;8.60;74.30;;;;;;5090796;28;20267;-63
2021/04/12 13:13:34;;;;;;;1.60;0.40;;;8.60;73.60;;;;;;5088858;28;20441;-62
2021/04/12 13:16:15;;;;;;;1.50;0.20;;;8.50;72.30;;;;;;5087911;28;20568;-63
2021/04/12 13:18:52;;;;;;;1.80;0.60;;;8.60;72.40;;;;;;5088525;28;20437;-64
2021/04/12 13:21:23;;;;;;;1.90;0.73;;;8.50;72.60;;;;;;5088695;28;20541;-64
2021/04/12 13:23:55;;;;;;;1.80;0.73;;;8.50;74.30;;;;;;5088449;28;20442;-63
2021/04/12 13:26:33;;;;;;;3.23;0.90;;;8.40;74.00;;;;;;5084683;28;20470;-63
2021/04/12 13:29:07;;;;;;;1.60;0.40;;;8.40;74.90;;;;;;5088681;28;20469;-63
2021/04/12 13:31:44;;;;;;;1.67;0.40;;;8.40;74.80;;;;;;5088017;28;20499;-63
2021/04/12 13:34:16;;;;;;;1.70;0.57;;;8.30;74.20;;;;;;5086019;28;20442;-64
2021/04/12 13:36:51;;;;;;;2.67;0.63;;;8.30;74.20;;;;;;5088409;28;20446;-64
2021/04/12 13:39:30;;;;;;;1.60;0.40;;;8.20;77.50;;;;;;5097641;28;20429;-64
2021/04/12 13:41:56;;;;;;;1.67;0.40;;;8.10;81.20;;;;;;5086257;28;20801;-63
2021/04/12 13:44:24;;;;;;;2.00;0.70;;;7.80;90.70;;;;;;5071788;28;20471;-63
2021/04/12 13:47:08;;;;;;;1.90;0.60;;;7.40;99.10;;;;;;5089998;28;20601;-64
2021/04/12 13:49:51;;;;;;;1.60;0.20;;;7.00;99.90;;;;;;5087341;28;20453;-64
2021/04/12 13:52:25;;;;;;;1.50;0.20;;;6.90;99.90;;;;;;5088425;28;20462;-63
2021/04/12 13:55:02;;;;;;;1.60;0.20;;;7.00;99.90;;;;;;5086381;28;20469;-64
2021/04/12 13:57:35;;;;;;;1.60;0.20;;;7.40;99.90;;;;;;5086293;28;20429;-64
2021/04/12 14:00:18;;;;;;;1.70;0.40;;;8.00;99.90;;;;;;5087826;28;20484;-63
2021/04/12 14:03:14;;;;;;;1.60;0.20;;;8.40;99.90;;;;;;5067857;28;20439;-63
2021/04/12 14:05:53;;;;;;;1.60;0.20;;;8.70;99.90;;;;;;5080516;28;20477;-64
2021/04/12 14:08:26;;;;;;;1.60;0.30;;;8.50;98.80;;;;;;5064478;28;20473;-64
2021/04/12 14:11:02;;;;;;;1.80;0.40;;;8.40;97.90;;;;;;5087282;28;20437;-64
2021/04/12 14:13:46;;;;;;;1.53;0.20;;;8.40;96.80;;;;;;5086831;28;20457;-64
2021/04/12 14:16:30;;;;;;;1.60;0.20;;;8.30;97.20;;;;;;5087114;28;20481;-65
2021/04/12 14:19:09;;;;;;;1.60;0.20;;;8.50;97.40;;;;;;5088251;28;20553;-65
2021/04/12 14:21:38;;;;;;;1.50;0.20;;;8.50;97.70;;;;;;5069508;28;20984;-63
2021/04/12 14:24:23;;;;;;;1.57;0.20;;;8.60;95.90;;;;;;5088290;28;20438;-63
2021/04/12 14:26:53;;;;;;;1.60;0.20;;;8.70;96.90;;;;;;5071143;28;20445;-66
2021/04/12 14:29:24;;;;;;;1.60;0.20;;;8.70;95.70;;;;;;5086281;28;20566;-63
2021/04/12 14:31:50;;;;;;;2.47;1.23;;;8.80;95.60;;;;;;5089311;23;529994;-66
2021/04/12 14:34:33;;;;;;;1.57;0.20;;;8.70;95.70;;;;;;5083406;28;20453;-67
2021/04/12 14:37:07;;;;;;;8.60;2.13;;;8.70;95.50;;;;;;5087075;28;20514;-67